createdAt,value
2017-04-24T00:00:42.753Z,26.73
2017-04-24T00:01:51.822Z,26.72
2017-04-24T00:03:00.586Z,26.91
2017-04-24T00:04:09.339Z,26.91
2017-04-24T00:05:18.719Z,26.91
2017-04-24T00:06:27.761Z,27.01
2017-04-24T00:07:36.778Z,26.91
2017-04-24T00:08:46.125Z,27.02
2017-04-24T00:09:55.805Z,27.01
2017-04-24T00:11:05.152Z,27.11
2017-04-24T00:12:13.855Z,27.01
2017-04-24T00:13:22.879Z,26.81
2017-04-24T00:14:32.262Z,26.72
2017-04-24T00:15:41.036Z,26.91
2017-04-24T00:16:49.805Z,27.01
2017-04-24T00:17:58.873Z,26.91
2017-04-24T00:19:08.231Z,27.01
2017-04-24T00:20:17.568Z,27.01
2017-04-24T00:21:26.334Z,26.81
2017-04-24T00:22:35.410Z,26.91
2017-04-24T00:23:44.481Z,26.91
2017-04-24T00:24:54.466Z,27.01
2017-04-24T00:26:03.514Z,27.01
2017-04-24T00:27:13.045Z,26.81
2017-04-24T00:28:21.817Z,27.01
2017-04-24T00:29:31.163Z,26.81
2017-04-24T00:30:40.189Z,26.81
2017-04-24T00:31:48.963Z,27.01
2017-04-24T00:32:58.019Z,27.01
2017-04-24T00:34:07.364Z,26.81
2017-04-24T00:35:16.723Z,26.91
2017-04-24T00:36:25.789Z,26.91
2017-04-24T00:37:34.550Z,26.91
2017-04-24T00:38:44.235Z,26.91
2017-04-24T00:39:53.303Z,26.81
2017-04-24T00:41:03.281Z,27.01
2017-04-24T00:42:12.027Z,27.11
2017-04-24T00:43:21.098Z,27.11
2017-04-24T00:44:30.467Z,27.11
2017-04-24T00:45:39.219Z,27.01
2017-04-24T00:46:48.247Z,26.81
2017-04-24T00:47:57.621Z,26.91
2017-04-24T00:49:06.992Z,27.01
2017-04-24T00:50:16.056Z,26.91
2017-04-24T00:51:24.816Z,26.81
2017-04-24T00:52:34.190Z,26.81
2017-04-24T00:53:43.867Z,26.81
2017-04-24T00:54:52.932Z,27.01
2017-04-24T00:56:02.304Z,27.2
2017-04-24T00:57:11.644Z,27.2
2017-04-24T00:58:20.371Z,27.2
2017-04-24T00:59:29.436Z,27.11
2017-04-24T01:00:38.205Z,27.01
2017-04-24T01:01:47.250Z,27.01
2017-04-24T01:02:56.006Z,27.11
2017-04-24T01:04:05.700Z,27.11
2017-04-24T01:05:14.771Z,26.91
2017-04-24T01:06:23.839Z,27.01
2017-04-24T01:07:32.601Z,26.91
2017-04-24T01:08:42.254Z,27.11
2017-04-24T01:09:51.612Z,27.01
2017-04-24T01:11:00.339Z,27.2
2017-04-24T01:12:09.411Z,27.11
2017-04-24T01:13:18.779Z,27.11
2017-04-24T01:14:27.816Z,27.2
2017-04-24T01:15:37.146Z,27.11
2017-04-24T01:16:45.912Z,27.29
2017-04-24T01:17:54.948Z,26.91
2017-04-24T01:19:03.979Z,27.01
2017-04-24T01:20:13.036Z,27.2
2017-04-24T01:21:22.111Z,27.2
2017-04-24T01:22:31.179Z,27.29
2017-04-24T01:23:40.860Z,27
2017-04-24T01:24:50.224Z,27.2
2017-04-24T01:25:59.297Z,27.01
2017-04-24T01:27:08.336Z,27.01
2017-04-24T01:28:17.358Z,27.29
2017-04-24T01:29:26.429Z,26.91
2017-04-24T01:30:35.706Z,27.29
2017-04-24T01:31:44.754Z,27.01
2017-04-24T01:32:53.787Z,27.2
2017-04-24T01:34:03.161Z,27.2
2017-04-24T01:35:12.509Z,27.11
2017-04-24T01:36:21.252Z,27.29
2017-04-24T01:37:29.956Z,27.29
2017-04-24T01:38:38.738Z,27.19
2017-04-24T01:39:47.807Z,27.19
2017-04-24T01:40:56.863Z,27.28
2017-04-24T01:42:05.907Z,27.29
2017-04-24T01:43:14.936Z,27.19
2017-04-24T01:44:24.608Z,27.39
2017-04-24T01:45:33.675Z,27.28
2017-04-24T01:46:42.707Z,27.11
2017-04-24T01:47:51.406Z,27.19
2017-04-24T01:49:00.404Z,27.19
2017-04-24T01:50:09.740Z,27.28
2017-04-24T01:51:18.501Z,27.39
2017-04-24T01:52:27.256Z,27.19
2017-04-24T01:53:36.597Z,27.28
2017-04-24T01:54:45.662Z,27.28
2017-04-24T01:55:55.029Z,27.28
2017-04-24T01:57:03.767Z,27.01
2017-04-24T01:58:12.811Z,27.28
2017-04-24T01:59:21.921Z,27.48
2017-04-24T02:00:30.996Z,27.48
2017-04-24T02:01:39.752Z,27
2017-04-24T02:02:48.817Z,27.39
2017-04-24T02:03:58.794Z,27.28
2017-04-24T02:05:07.847Z,27.09
2017-04-24T02:06:16.638Z,27.19
2017-04-24T02:07:26.018Z,27.28
2017-04-24T02:08:35.094Z,27.38
2017-04-24T02:09:44.759Z,27.28
2017-04-24T02:10:53.520Z,27.38
2017-04-24T02:12:02.284Z,27.09
2017-04-24T02:13:11.657Z,27.19
2017-04-24T02:14:20.729Z,27.09
2017-04-24T02:15:30.381Z,27.28
2017-04-24T02:16:39.382Z,27.19
2017-04-24T02:17:48.410Z,27.19
2017-04-24T02:18:57.753Z,27.19
2017-04-24T02:20:06.498Z,27.28
2017-04-24T02:21:15.227Z,27.09
2017-04-24T02:22:23.989Z,27.19
2017-04-24T02:23:33.063Z,27.28
2017-04-24T02:24:42.457Z,27.28
2017-04-24T02:25:51.223Z,27.19
2017-04-24T02:27:00.000Z,27.09
2017-04-24T02:28:08.763Z,27.28
2017-04-24T02:29:17.802Z,27.28
2017-04-24T02:30:26.810Z,27.19
2017-04-24T02:31:36.183Z,27.28
2017-04-24T02:32:45.250Z,27.09
2017-04-24T02:33:54.625Z,27.19
2017-04-24T02:35:03.996Z,27.19
2017-04-24T02:36:12.760Z,27.09
2017-04-24T02:37:21.829Z,27.09
2017-04-24T02:38:30.593Z,27.28
2017-04-24T02:39:39.669Z,27.28
2017-04-24T02:40:48.761Z,27.28
2017-04-24T02:41:57.838Z,27.28
2017-04-24T02:43:06.910Z,27.28
2017-04-24T02:44:31.280Z,27.19
2017-04-24T02:45:40.627Z,27.19
2017-04-24T02:46:50.257Z,27.28
2017-04-24T02:47:59.639Z,27.38
2017-04-24T02:49:08.713Z,27.28
2017-04-24T02:50:18.074Z,27.28
2017-04-24T02:51:27.107Z,27.38
2017-04-24T02:52:36.184Z,27.38
2017-04-24T02:53:45.553Z,27.38
2017-04-24T02:54:54.914Z,27.38
2017-04-24T02:56:03.984Z,27.19
2017-04-24T02:57:13.054Z,27.38
2017-04-24T02:58:21.790Z,27.28
2017-04-24T02:59:31.422Z,27.28
2017-04-24T03:00:40.188Z,27.28
2017-04-24T03:01:48.954Z,27.28
2017-04-24T03:02:57.694Z,27.19
2017-04-24T03:04:07.332Z,27.28
2017-04-24T03:05:16.715Z,27.19
2017-04-24T03:06:25.791Z,27.19
2017-04-24T03:07:34.829Z,27.38
2017-04-24T03:08:43.879Z,27.19
2017-04-24T03:09:52.944Z,27.38
2017-04-24T03:11:02.313Z,27.38
2017-04-24T03:12:11.073Z,27.48
2017-04-24T03:13:19.849Z,27.38
2017-04-24T03:14:28.913Z,27.38
2017-04-24T03:15:38.319Z,27.38
2017-04-24T03:16:47.065Z,27.38
2017-04-24T03:17:56.091Z,27.38
2017-04-24T03:19:06.067Z,27.38
2017-04-24T03:20:15.117Z,27.48
2017-04-24T03:21:24.144Z,27.38
2017-04-24T03:22:32.898Z,27.38
2017-04-24T03:23:41.677Z,27.38
2017-04-24T03:24:50.450Z,27.38
2017-04-24T03:25:59.217Z,27.28
2017-04-24T03:27:07.973Z,27.48
2017-04-24T03:28:17.343Z,27.28
2017-04-24T03:29:27.031Z,27.48
2017-04-24T03:30:36.087Z,27.38
2017-04-24T03:31:44.826Z,27.48
2017-04-24T03:32:53.584Z,27.37
2017-04-24T03:34:03.235Z,27.38
2017-04-24T03:35:12.629Z,27.38
2017-04-24T03:36:21.705Z,27.38
2017-04-24T03:37:31.081Z,27.28
2017-04-24T03:38:40.725Z,27.37
2017-04-24T03:39:50.371Z,27.38
2017-04-24T03:40:59.754Z,27.27
2017-04-24T03:42:08.854Z,27.48
2017-04-24T03:43:17.595Z,27.37
2017-04-24T03:44:26.631Z,27.46
2017-04-24T03:45:35.710Z,27.27
2017-04-24T03:46:44.787Z,27.46
2017-04-24T03:47:53.562Z,27.37
2017-04-24T03:49:02.329Z,27.66
2017-04-24T03:50:11.114Z,27.56
2017-04-24T03:51:20.462Z,27.46
2017-04-24T03:52:29.199Z,27.46
2017-04-24T03:53:37.962Z,27.56
2017-04-24T03:54:47.324Z,27.56
2017-04-24T03:55:56.370Z,27.46
2017-04-24T03:57:05.154Z,27.56
2017-04-24T03:58:15.146Z,27.46
2017-04-24T03:59:23.904Z,27.56
2017-04-24T04:00:32.988Z,27.56
2017-04-24T04:01:41.771Z,27.46
2017-04-24T04:02:50.844Z,27.56
2017-04-24T04:04:00.513Z,27.46
2017-04-24T04:05:09.278Z,27.56
2017-04-24T04:06:18.329Z,27.46
2017-04-24T04:07:27.082Z,27.56
2017-04-24T04:08:36.466Z,27.37
2017-04-24T04:09:45.537Z,27.56
2017-04-24T04:10:54.601Z,27.56
2017-04-24T04:12:03.660Z,27.66
2017-04-24T04:13:12.431Z,27.46
2017-04-24T04:14:21.492Z,27.46
2017-04-24T04:15:30.572Z,27.56
2017-04-24T04:16:39.320Z,27.46
2017-04-24T04:17:48.050Z,27.46
2017-04-24T04:18:56.819Z,27.56
2017-04-24T04:20:05.889Z,27.46
2017-04-24T04:21:14.961Z,27.46
2017-04-24T04:22:24.037Z,27.37
2017-04-24T04:23:33.422Z,27.48
2017-04-24T04:24:42.801Z,27.38
2017-04-24T04:25:51.574Z,27.38
2017-04-24T04:27:00.348Z,27.37
2017-04-24T04:28:09.428Z,27.48
2017-04-24T04:29:18.506Z,27.56
2017-04-24T04:30:27.572Z,27.38
2017-04-24T04:31:36.854Z,27.48
2017-04-24T04:32:45.621Z,27.48
2017-04-24T04:33:55.011Z,27.48
2017-04-24T04:35:04.694Z,27.48
2017-04-24T04:36:13.562Z,27.66
2017-04-24T04:37:22.875Z,27.48
2017-04-24T04:38:31.942Z,27.48
2017-04-24T04:39:41.609Z,27.67
2017-04-24T04:40:50.336Z,27.57
2017-04-24T04:41:59.669Z,27.48
2017-04-24T04:43:08.736Z,27.57
2017-04-24T04:44:18.463Z,27.38
2017-04-24T04:45:27.846Z,27.48
2017-04-24T04:46:37.224Z,27.48
2017-04-24T04:47:46.297Z,27.38
2017-04-24T04:48:55.679Z,27.28
2017-04-24T04:50:04.772Z,27.57
2017-04-24T04:51:13.839Z,27.48
2017-04-24T04:52:22.605Z,27.48
2017-04-24T04:53:31.673Z,27.48
2017-04-24T04:54:41.357Z,27.28
2017-04-24T04:55:50.123Z,27.48
2017-04-24T04:56:59.502Z,27.48
2017-04-24T04:58:08.856Z,27.48
2017-04-24T04:59:17.896Z,27.38
2017-04-24T05:00:26.970Z,27.48
2017-04-24T05:01:35.940Z,27.38
2017-04-24T05:02:45.322Z,27.38
2017-04-24T05:03:54.402Z,27.38
2017-04-24T05:05:03.460Z,27.38
2017-04-24T05:06:12.538Z,27.38
2017-04-24T05:07:21.906Z,27.28
2017-04-24T05:08:30.982Z,27.19
2017-04-24T05:09:40.363Z,27.19
2017-04-24T05:10:49.124Z,27.29
2017-04-24T05:11:57.894Z,27.29
2017-04-24T05:13:07.482Z,27.28
2017-04-24T05:14:16.857Z,27.19
2017-04-24T05:15:25.921Z,27.39
2017-04-24T05:16:34.695Z,27.19
2017-04-24T05:17:43.742Z,27.2
2017-04-24T05:18:53.055Z,27.29
2017-04-24T05:20:02.398Z,27.49
2017-04-24T05:21:11.165Z,27.11
2017-04-24T05:22:19.939Z,27.29
2017-04-24T05:23:28.712Z,27.11
2017-04-24T05:24:38.091Z,27.01
2017-04-24T05:25:46.862Z,26.91
2017-04-24T05:26:56.254Z,27.29
2017-04-24T05:28:05.057Z,27.01
2017-04-24T05:29:14.206Z,27.01
2017-04-24T05:30:24.121Z,27.2
2017-04-24T05:31:33.148Z,27.11
2017-04-24T05:32:42.183Z,26.81
2017-04-24T05:33:51.566Z,27.2
2017-04-24T05:35:01.254Z,27.11
2017-04-24T05:36:10.316Z,27.11
2017-04-24T05:37:19.077Z,26.91
2017-04-24T05:38:27.843Z,26.91
2017-04-24T05:39:37.832Z,26.81
2017-04-24T05:40:46.596Z,26.91
2017-04-24T05:41:55.665Z,26.91
2017-04-24T05:43:04.748Z,26.91
2017-04-24T05:44:14.338Z,26.91
2017-04-24T05:45:23.414Z,26.92
2017-04-24T05:46:32.192Z,27.02
2017-04-24T05:47:41.544Z,26.82
2017-04-24T05:48:50.579Z,27.02
2017-04-24T05:49:59.323Z,26.92
2017-04-24T05:51:08.969Z,26.92
2017-04-24T05:52:17.736Z,26.64
2017-04-24T05:53:27.430Z,26.64
2017-04-24T05:54:37.135Z,26.82
2017-04-24T05:55:46.215Z,26.82
2017-04-24T05:56:54.991Z,26.82
2017-04-24T05:58:04.071Z,26.64
2017-04-24T05:59:13.448Z,26.54
2017-04-24T06:00:23.126Z,26.82
2017-04-24T06:01:32.212Z,26.34
2017-04-24T06:02:41.288Z,26.44
2017-04-24T06:03:50.694Z,26.82
2017-04-24T06:05:00.663Z,26.92
2017-04-24T06:06:09.679Z,26.82
2017-04-24T06:07:18.494Z,26.92
2017-04-24T06:08:27.263Z,27.02
2017-04-24T06:09:36.338Z,26.75
2017-04-24T06:10:45.727Z,26.34
2017-04-24T06:11:54.475Z,27.02
2017-04-24T06:13:03.207Z,26.92
2017-04-24T06:14:12.887Z,26.65
2017-04-24T06:15:21.957Z,26.82
2017-04-24T06:16:30.724Z,26.25
2017-04-24T06:17:39.776Z,26.35
2017-04-24T06:18:49.117Z,26.35
2017-04-24T06:19:58.498Z,26.45
2017-04-24T06:21:07.255Z,26.45
2017-04-24T06:22:16.145Z,26.07
2017-04-24T06:23:25.224Z,26.65
2017-04-24T06:24:34.298Z,26.55
2017-04-24T06:25:43.665Z,26.35
2017-04-24T06:26:52.410Z,26.45
2017-04-24T06:28:01.446Z,26.35
2017-04-24T06:29:11.125Z,26.26
2017-04-24T06:30:19.883Z,26.35
2017-04-24T06:31:28.920Z,26.26
2017-04-24T06:32:38.309Z,26.45
2017-04-24T06:33:47.985Z,26.35
2017-04-24T06:34:57.693Z,25.68
2017-04-24T06:36:06.768Z,25.87
2017-04-24T06:37:16.150Z,25.89
2017-04-24T06:38:25.206Z,25.79
2017-04-24T06:39:34.553Z,25.87
2017-04-24T06:40:43.287Z,25.7
2017-04-24T06:41:52.042Z,25.98
2017-04-24T06:43:01.068Z,25.89
2017-04-24T06:44:10.123Z,25.98
2017-04-24T06:45:18.831Z,26.08
2017-04-24T06:46:27.871Z,25.7
2017-04-24T06:47:36.950Z,25.7
2017-04-24T06:48:46.634Z,26.37
2017-04-24T06:49:56.008Z,25.4
2017-04-24T06:51:05.081Z,26.08
2017-04-24T06:52:14.154Z,26.28
2017-04-24T06:53:23.530Z,25.21
2017-04-24T06:54:32.295Z,25.31
2017-04-24T06:55:41.030Z,25.79
2017-04-24T06:56:49.756Z,25.79
2017-04-24T06:57:58.842Z,25.4
2017-04-24T06:59:07.615Z,25.79
2017-04-24T07:00:16.373Z,25.79
2017-04-24T07:01:26.014Z,25.7
2017-04-24T07:02:35.397Z,25.4
2017-04-24T07:03:44.170Z,25.7
2017-04-24T07:04:53.827Z,25.7
2017-04-24T07:06:03.167Z,25.6
2017-04-24T07:07:11.936Z,25.31
2017-04-24T07:08:21.004Z,25.4
2017-04-24T07:09:30.688Z,25.4
2017-04-24T07:10:39.430Z,25.21
2017-04-24T07:11:48.159Z,25.31
2017-04-24T07:12:57.234Z,25.03
2017-04-24T07:14:06.003Z,25.12
2017-04-24T07:15:15.068Z,25.23
2017-04-24T07:16:24.449Z,24.93
2017-04-24T07:17:33.832Z,24.45
2017-04-24T07:18:43.206Z,24.93
2017-04-24T07:19:51.982Z,24.55
2017-04-24T07:21:01.573Z,25.03
2017-04-24T07:22:10.970Z,24.55
2017-04-24T07:23:20.049Z,25.03
2017-04-24T07:24:28.793Z,25.03
2017-04-24T07:25:37.827Z,24.55
2017-04-24T07:26:46.600Z,24.93
2017-04-24T07:27:55.340Z,24.26
2017-04-24T07:29:04.680Z,24.35
2017-04-24T07:30:13.756Z,24.65
2017-04-24T07:31:22.802Z,24.65
2017-04-24T07:32:31.531Z,24.65
2017-04-24T07:33:40.610Z,24.84
2017-04-24T07:34:49.985Z,24.45
2017-04-24T07:35:59.054Z,24.35
2017-04-24T07:37:08.431Z,24.55
2017-04-24T07:38:17.454Z,24.16
2017-04-24T07:39:26.224Z,24.16
2017-04-24T07:40:34.984Z,24.16
2017-04-24T07:41:43.756Z,24.16
2017-04-24T07:42:52.848Z,24.17
2017-04-24T07:44:02.229Z,23.87
2017-04-24T07:45:11.298Z,23.5
2017-04-24T07:46:20.374Z,23.79
2017-04-24T07:47:29.140Z,23.5
2017-04-24T07:48:37.915Z,23.69
2017-04-24T07:49:47.007Z,23.69
2017-04-24T07:50:55.787Z,23.59
2017-04-24T07:52:05.167Z,23.5
2017-04-24T07:53:13.932Z,23.59
2017-04-24T07:54:23.620Z,23.59
2017-04-24T07:55:33.020Z,23.4
2017-04-24T07:56:41.806Z,23.4
2017-04-24T07:57:51.497Z,23.3
2017-04-24T07:59:00.865Z,23.5
2017-04-24T08:00:09.940Z,23.59
2017-04-24T08:01:18.916Z,23.59
2017-04-24T08:02:27.980Z,23.4
2017-04-24T08:03:37.659Z,23.21
2017-04-24T08:04:47.048Z,23.4
2017-04-24T08:05:55.814Z,23.4
2017-04-24T08:07:04.590Z,23.3
2017-04-24T08:08:13.568Z,23.12
2017-04-24T08:09:22.598Z,23.32
2017-04-24T08:10:31.644Z,23.12
2017-04-24T08:11:40.374Z,23.32
2017-04-24T08:12:49.445Z,23.12
2017-04-24T08:13:58.805Z,23.02
2017-04-24T08:15:08.156Z,23.32
2017-04-24T08:16:16.929Z,23.12
2017-04-24T08:17:26.012Z,22.92
2017-04-24T08:18:35.040Z,22.83
2017-04-24T08:19:44.120Z,22.74
2017-04-24T08:20:53.206Z,22.74
2017-04-24T08:22:01.971Z,22.54
2017-04-24T08:23:11.040Z,22.74
2017-04-24T08:24:20.110Z,22.94
2017-04-24T08:25:29.797Z,22.65
2017-04-24T08:26:38.543Z,22.36
2017-04-24T08:27:47.574Z,22.74
2017-04-24T08:28:56.656Z,22.55
2017-04-24T08:30:05.422Z,22.06
2017-04-24T08:31:14.192Z,22.26
2017-04-24T08:32:22.957Z,21.98
2017-04-24T08:33:32.021Z,22.27
2017-04-24T08:34:41.092Z,22.27
2017-04-24T08:35:50.487Z,22.17
2017-04-24T08:36:59.534Z,22.17
2017-04-24T08:38:08.260Z,21.98
2017-04-24T08:39:17.355Z,21.79
2017-04-24T08:40:26.125Z,22.17
2017-04-24T08:41:34.869Z,21.79
2017-04-24T08:42:43.618Z,21.98
2017-04-24T08:43:52.926Z,21.79
2017-04-24T08:45:02.014Z,21.88
2017-04-24T08:46:10.785Z,22.08
2017-04-24T08:47:19.849Z,21.79
2017-04-24T08:48:28.622Z,21.41
2017-04-24T08:49:37.883Z,21.59
2017-04-24T08:50:47.522Z,21.61
2017-04-24T08:51:56.481Z,21.41
2017-04-24T08:53:05.528Z,21.51
2017-04-24T08:54:14.913Z,21.61
2017-04-24T08:55:24.293Z,21.51
2017-04-24T08:56:33.370Z,21.8
2017-04-24T08:57:42.101Z,21.22
2017-04-24T08:58:50.882Z,21.51
2017-04-24T09:00:00.262Z,21.41
2017-04-24T09:01:09.004Z,21.22
2017-04-24T09:02:17.721Z,21.22
2017-04-24T09:03:26.503Z,21.02
2017-04-24T09:04:35.565Z,20.94
2017-04-24T09:05:44.928Z,21.33
2017-04-24T09:06:53.641Z,20.94
2017-04-24T09:08:02.382Z,20.84
2017-04-24T09:09:11.416Z,20.84
2017-04-24T09:10:20.797Z,20.74
2017-04-24T09:11:29.881Z,20.55
2017-04-24T09:12:38.965Z,20.65
2017-04-24T09:13:48.646Z,20.94
2017-04-24T09:14:57.728Z,20.75
2017-04-24T09:16:06.792Z,20.27
2017-04-24T09:17:15.551Z,20.07
2017-04-24T09:18:24.623Z,20.37
2017-04-24T09:19:33.405Z,20.27
2017-04-24T09:20:42.169Z,20.46
2017-04-24T09:21:50.938Z,20.17
2017-04-24T09:23:00.005Z,20.27
2017-04-24T09:24:08.785Z,19.89
2017-04-24T09:25:17.831Z,19.6
2017-04-24T09:26:27.176Z,19.79
2017-04-24T09:27:36.248Z,19.89
2017-04-24T09:28:44.984Z,19.7
2017-04-24T09:29:54.022Z,19.5
2017-04-24T09:31:02.787Z,19.6
2017-04-24T09:32:11.547Z,19.5
2017-04-24T09:33:20.328Z,19.12
2017-04-24T09:34:29.711Z,19.22
2017-04-24T09:35:39.083Z,19.02
2017-04-24T09:36:47.847Z,19.22
2017-04-24T09:37:56.914Z,18.83
2017-04-24T09:39:05.993Z,18.93
2017-04-24T09:40:15.335Z,18.74
2017-04-24T09:41:24.378Z,18.65
2017-04-24T09:42:33.727Z,18.74
2017-04-24T09:43:43.669Z,18.74
2017-04-24T09:44:52.754Z,18.16
2017-04-24T09:46:01.528Z,18.37
2017-04-24T09:47:10.602Z,18.27
2017-04-24T09:48:19.685Z,18.37
2017-04-24T09:49:29.041Z,18.07
2017-04-24T09:50:37.774Z,17.97
2017-04-24T09:51:46.550Z,17.78
2017-04-24T09:52:55.945Z,18.27
2017-04-24T09:54:05.030Z,17.97
2017-04-24T09:55:14.110Z,18.07
2017-04-24T09:56:23.190Z,17.78
2017-04-24T09:57:31.956Z,17.5
2017-04-24T09:58:41.036Z,17.6
2017-04-24T09:59:50.094Z,17.89
2017-04-24T10:00:59.740Z,17.5
2017-04-24T10:02:08.492Z,17.5
2017-04-24T10:03:17.216Z,17.41
2017-04-24T10:04:26.300Z,17.6
2017-04-24T10:05:35.391Z,17.8
2017-04-24T10:06:44.429Z,17.5
2017-04-24T10:07:53.159Z,17.8
2017-04-24T10:09:01.910Z,17.5
2017-04-24T10:10:10.631Z,17.9
2017-04-24T10:11:19.397Z,17.9
2017-04-24T10:12:28.476Z,17.69
2017-04-24T10:13:37.557Z,17.69
2017-04-24T10:14:46.947Z,17.8
2017-04-24T10:15:56.331Z,17.31
2017-04-24T10:17:05.406Z,17.31
2017-04-24T10:18:14.456Z,17.7
2017-04-24T10:19:23.637Z,17.7
2017-04-24T10:20:33.329Z,17.31
2017-04-24T10:21:42.096Z,17.41
2017-04-24T10:22:51.165Z,17.02
2017-04-24T10:24:00.540Z,17.03
2017-04-24T10:25:09.640Z,16.74
2017-04-24T10:26:18.420Z,16.83
2017-04-24T10:27:27.490Z,16.93
2017-04-24T10:28:36.263Z,16.74
2017-04-24T10:29:45.348Z,16.84
2017-04-24T10:30:55.315Z,16.46
2017-04-24T10:32:04.369Z,16.36
2017-04-24T10:33:13.722Z,15.97
2017-04-24T10:34:23.111Z,15.59
2017-04-24T10:35:32.488Z,15.88
2017-04-24T10:36:41.843Z,15.41
2017-04-24T10:37:50.599Z,15.41
2017-04-24T10:38:59.941Z,15.6
2017-04-24T10:40:08.980Z,15.12
2017-04-24T10:41:17.761Z,15.5
2017-04-24T10:42:26.539Z,15.6
2017-04-24T10:43:36.134Z,15.5
2017-04-24T10:44:45.523Z,15.5
2017-04-24T10:45:54.880Z,15.8
2017-04-24T10:47:03.646Z,16.17
2017-04-24T10:48:12.415Z,16.08
2017-04-24T10:49:22.107Z,16.08
2017-04-24T10:50:31.769Z,16.36
2017-04-24T10:51:40.804Z,16.46
2017-04-24T10:52:49.583Z,16.17
2017-04-24T10:53:59.201Z,16.17
2017-04-24T10:55:07.977Z,16.17
2017-04-24T10:56:16.749Z,16.56
2017-04-24T10:57:25.804Z,16.75
2017-04-24T10:58:34.831Z,16.74
2017-04-24T10:59:43.867Z,16.64
2017-04-24T11:00:52.646Z,16.94
2017-04-24T11:02:01.394Z,16.93
2017-04-24T11:03:10.132Z,17.22
2017-04-24T11:04:19.716Z,16.74
2017-04-24T11:05:29.113Z,16.93
2017-04-24T11:06:38.186Z,16.83
2017-04-24T11:07:47.569Z,16.93
2017-04-24T11:08:56.346Z,16.83
2017-04-24T11:10:05.127Z,17.13
2017-04-24T11:11:14.211Z,16.64
2017-04-24T11:12:22.980Z,16.93
2017-04-24T11:13:32.046Z,16.83
2017-04-24T11:14:41.101Z,17.22
2017-04-24T11:15:49.834Z,16.83
2017-04-24T11:16:58.910Z,16.83
2017-04-24T11:18:07.975Z,16.74
2017-04-24T11:19:17.582Z,16.46
2017-04-24T11:20:26.353Z,16.55
2017-04-24T11:21:35.142Z,16.84
2017-04-24T11:22:44.208Z,16.36
2017-04-24T11:23:52.950Z,16.26
2017-04-24T11:25:02.299Z,16.46
2017-04-24T11:26:11.069Z,16.84
2017-04-24T11:27:20.360Z,16.84
2017-04-24T11:28:29.134Z,16.74
2017-04-24T11:29:38.452Z,16.83
2017-04-24T11:30:47.761Z,17.03
2017-04-24T11:31:56.488Z,17.13
2017-04-24T11:33:05.552Z,17.12
2017-04-24T11:34:14.936Z,17.21
2017-04-24T11:35:24.316Z,17.6
2017-04-24T11:36:33.397Z,17.21
2017-04-24T11:37:42.475Z,17.21
2017-04-24T11:38:51.220Z,17.7
2017-04-24T11:40:00.555Z,17.02
2017-04-24T11:41:09.325Z,17.5
2017-04-24T11:42:18.105Z,16.83
2017-04-24T11:43:26.864Z,16.93
2017-04-24T11:44:36.246Z,16.54
2017-04-24T11:45:45.637Z,16.54
2017-04-24T11:46:54.732Z,16.26
2017-04-24T11:48:03.805Z,16.36
2017-04-24T11:49:13.490Z,16.16
2017-04-24T11:50:22.520Z,15.78
2017-04-24T11:51:31.589Z,16.17
2017-04-24T11:52:40.670Z,15.97
2017-04-24T11:53:50.055Z,15.88
2017-04-24T11:54:58.828Z,16.08
2017-04-24T11:56:07.916Z,15.5
2017-04-24T11:57:16.999Z,16.27
2017-04-24T11:58:26.378Z,15.88
2017-04-24T11:59:35.771Z,15.98
2017-04-24T12:00:44.526Z,16.08
2017-04-24T12:01:53.298Z,16.27
2017-04-24T12:03:02.373Z,16.17
2017-04-24T12:04:11.148Z,16.07
2017-04-24T12:05:20.447Z,16.27
2017-04-24T12:06:29.518Z,16.46
2017-04-24T12:07:38.592Z,16.36
2017-04-24T12:08:47.682Z,16.64
2017-04-24T12:09:56.435Z,17.03
2017-04-24T12:11:05.780Z,16.74
2017-04-24T12:12:14.572Z,16.94
2017-04-24T12:13:23.326Z,16.93
2017-04-24T12:14:32.357Z,17.03
2017-04-24T12:15:41.433Z,17.32
2017-04-24T12:16:50.504Z,17.13
2017-04-24T12:17:59.585Z,17.61
2017-04-24T12:19:09.083Z,17.61
2017-04-24T12:20:18.540Z,17.5
2017-04-24T12:21:27.812Z,17.8
2017-04-24T12:22:36.579Z,17.99
2017-04-24T12:23:45.350Z,18.19
2017-04-24T12:24:54.117Z,17.99
2017-04-24T12:26:03.205Z,18.47
2017-04-24T12:27:11.968Z,18.27
2017-04-24T12:28:21.287Z,18.18
2017-04-24T12:29:30.366Z,18.37
2017-04-24T12:30:39.132Z,18.18
2017-04-24T12:31:48.239Z,18.75
2017-04-24T12:32:57.044Z,18.75
2017-04-24T12:34:06.083Z,18.86
2017-04-24T12:35:15.154Z,18.66
2017-04-24T12:36:24.228Z,18.66
2017-04-24T12:37:33.607Z,18.66
2017-04-24T12:38:42.682Z,19.04
2017-04-24T12:39:52.061Z,18.85
2017-04-24T12:41:00.811Z,19.43
2017-04-24T12:42:09.540Z,19.04
2017-04-24T12:43:18.866Z,19.14
2017-04-24T12:44:27.946Z,19.04
2017-04-24T12:45:37.019Z,19.04
2017-04-24T12:46:46.077Z,19.24
2017-04-24T12:47:55.165Z,19.14
2017-04-24T12:49:03.950Z,19.04
2017-04-24T12:50:13.024Z,19.04
2017-04-24T12:51:21.797Z,19.43
2017-04-24T12:52:30.569Z,19.34
2017-04-24T12:53:39.625Z,19.53
2017-04-24T12:54:49.298Z,19.62
2017-04-24T12:55:58.064Z,19.81
2017-04-24T12:57:07.436Z,19.62
2017-04-24T12:58:16.213Z,19.91
2017-04-24T12:59:25.598Z,19.81
2017-04-24T13:00:35.593Z,19.91
2017-04-24T13:01:44.362Z,19.71
2017-04-24T13:02:53.128Z,19.71
2017-04-24T13:04:02.501Z,19.81
2017-04-24T13:05:11.291Z,19.62
2017-04-24T13:06:20.367Z,19.81
2017-04-24T13:07:29.142Z,19.71
2017-04-24T13:08:38.514Z,19.7
2017-04-24T13:09:47.284Z,20
2017-04-24T13:10:56.362Z,20.19
2017-04-24T13:12:05.443Z,20.19
2017-04-24T13:13:15.116Z,20.09
2017-04-24T13:14:24.154Z,20.29
2017-04-24T13:15:33.532Z,20.09
2017-04-24T13:16:42.277Z,20.29
2017-04-24T13:17:51.014Z,20.29
2017-04-24T13:19:00.404Z,20
2017-04-24T13:20:09.178Z,20.48
2017-04-24T13:21:17.957Z,20.58
2017-04-24T13:22:27.027Z,20.48
2017-04-24T13:23:36.702Z,20.29
2017-04-24T13:24:46.392Z,20.39
2017-04-24T13:25:55.160Z,20.28
2017-04-24T13:27:04.236Z,20.19
2017-04-24T13:28:13.004Z,20.47
2017-04-24T13:29:22.285Z,20.86
2017-04-24T13:30:31.059Z,20.47
2017-04-24T13:31:39.845Z,20.67
2017-04-24T13:32:48.610Z,20.57
2017-04-24T13:33:57.994Z,20.37
2017-04-24T13:35:07.651Z,20.86
2017-04-24T13:36:17.000Z,20.37
2017-04-24T13:37:26.085Z,20.96
2017-04-24T13:38:35.167Z,20.86
2017-04-24T13:39:44.442Z,20.86
2017-04-24T13:40:53.181Z,21.05
2017-04-24T13:42:01.915Z,20.76
2017-04-24T13:43:10.663Z,20.76
2017-04-24T13:44:20.038Z,20.76
2017-04-24T13:45:29.124Z,20.96
2017-04-24T13:46:38.196Z,21.15
2017-04-24T13:47:47.873Z,21.04
2017-04-24T13:48:56.628Z,21.04
2017-04-24T13:50:06.022Z,21.15
2017-04-24T13:51:14.832Z,20.95
2017-04-24T13:52:23.899Z,21.04
2017-04-24T13:53:32.986Z,21.14
2017-04-24T13:54:42.029Z,21.14
2017-04-24T13:55:50.766Z,20.75
2017-04-24T13:56:59.539Z,20.95
2017-04-24T13:58:08.616Z,20.95
2017-04-24T13:59:17.703Z,21.04
2017-04-24T14:00:26.777Z,21.24
2017-04-24T14:01:35.874Z,20.95
2017-04-24T14:02:44.643Z,21.04
2017-04-24T14:03:54.022Z,21.33
2017-04-24T14:05:03.101Z,21.53
2017-04-24T14:06:11.874Z,21.43
2017-04-24T14:07:20.645Z,21.43
2017-04-24T14:08:29.432Z,21.53
2017-04-24T14:09:38.506Z,21.82
2017-04-24T14:10:47.279Z,21.62
2017-04-24T14:11:56.087Z,21.62
2017-04-24T14:13:05.141Z,21.82
2017-04-24T14:14:14.178Z,21.53
2017-04-24T14:15:23.235Z,21.62
2017-04-24T14:16:32.273Z,21.82
2017-04-24T14:17:41.036Z,21.62
2017-04-24T14:18:50.295Z,21.53
2017-04-24T14:19:59.329Z,21.91
2017-04-24T14:21:08.092Z,21.92
2017-04-24T14:22:16.890Z,21.81
2017-04-24T14:23:26.021Z,21.81
2017-04-24T14:24:34.785Z,21.82
2017-04-24T14:25:43.554Z,22.02
2017-04-24T14:26:52.946Z,21.92
2017-04-24T14:28:01.671Z,21.72
2017-04-24T14:29:11.057Z,21.71
2017-04-24T14:30:20.425Z,21.82
2017-04-24T14:31:29.495Z,21.82
2017-04-24T14:32:38.828Z,22.1
2017-04-24T14:33:48.518Z,22.02
2017-04-24T14:34:57.288Z,22.2
2017-04-24T14:36:06.063Z,22.1
2017-04-24T14:37:14.805Z,22.2
2017-04-24T14:38:24.148Z,22.2
2017-04-24T14:39:33.502Z,22.2
2017-04-24T14:40:42.229Z,22.1
2017-04-24T14:41:51.606Z,22
2017-04-24T14:43:01.283Z,22.1
2017-04-24T14:44:10.677Z,22.2
2017-04-24T14:45:20.047Z,22.1
2017-04-24T14:46:28.809Z,22.1
2017-04-24T14:47:37.586Z,22.1
2017-04-24T14:48:46.366Z,22.3
2017-04-24T14:49:55.446Z,22.39
2017-04-24T14:51:04.861Z,22.58
2017-04-24T14:52:13.937Z,22.49
2017-04-24T14:53:23.599Z,22.58